Time;durP1;ratioP1;P1;durP2;ratioP2;P2;SDS_P1;SDS_P2;PMS_P1;PMS_P2;Temp;Humidity;BMP_temperature;BMP_pressure;BME280_temperature;BME280_humidity;BME280_pressure;Samples;Min_cycle;Max_cycle;Signal;HPM_P1;HPM_P2
2023/06/17 00:02:07;;;;;;;0.52;0.35;;;13.80;99.90;;;;;;5008874;28;20045;-71
2023/06/17 00:04:33;;;;;;;0.13;0.13;;;13.80;99.90;;;;;;5010514;28;20068;-71
2023/06/17 00:06:58;;;;;;;0.20;0.10;;;13.80;99.90;;;;;;5009714;28;20046;-71
2023/06/17 00:09:25;;;;;;;0.55;0.20;;;13.80;99.90;;;;;;5026676;28;20069;-71
2023/06/17 00:11:52;;;;;;;0.00;0.00;;;13.80;99.90;;;;;;5011216;28;20041;-71
2023/06/17 00:14:20;;;;;;;0.10;0.10;;;13.80;99.90;;;;;;5023575;28;20485;-70
2023/06/17 00:16:47;;;;;;;0.20;0.10;;;13.70;99.90;;;;;;5007773;28;20049;-71
2023/06/17 00:19:16;;;;;;;0.28;0.17;;;13.70;99.90;;;;;;4993513;28;20581;-70
2023/06/17 00:21:49;;;;;;;0.10;0.03;;;13.70;99.90;;;;;;5008905;28;20465;-70
2023/06/17 00:24:21;;;;;;;0.05;0.05;;;13.70;99.90;;;;;;4994919;28;20376;-70
2023/06/17 00:26:47;;;;;;;0.38;0.30;;;13.70;99.90;;;;;;5009851;28;20088;-71
2023/06/17 00:29:13;;;;;;;0.03;0.00;;;13.60;99.90;;;;;;5009247;28;20069;-70
2023/06/17 00:31:39;;;;;;;0.10;0.10;;;13.60;99.90;;;;;;5010827;28;20056;-70
2023/06/17 00:34:05;;;;;;;0.25;0.13;;;13.60;99.90;;;;;;5010112;28;20041;-71
2023/06/17 00:36:30;;;;;;;0.10;0.10;;;13.50;99.90;;;;;;4994862;28;20049;-71
2023/06/17 00:38:56;;;;;;;0.32;0.20;;;13.50;99.90;;;;;;4992120;28;20037;-70
2023/06/17 00:41:22;;;;;;;0.20;0.20;;;13.50;99.90;;;;;;4993664;28;20091;-70
2023/06/17 00:43:48;;;;;;;0.20;0.20;;;13.50;99.90;;;;;;4993645;28;20034;-71
2023/06/17 00:46:36;;;;;;;0.00;0.00;;;13.40;99.90;;;;;;5013339;28;20453;-71
2023/06/17 00:49:04;;;;;;;0.00;0.00;;;13.40;99.90;;;;;;5011563;28;20041;-70
2023/06/17 00:51:34;;;;;;;0.28;0.20;;;13.40;99.90;;;;;;5014731;28;20041;-71
2023/06/17 00:54:00;;;;;;;0.90;0.35;;;13.40;99.90;;;;;;5011234;28;20166;-70
2023/06/17 00:56:27;;;;;;;0.10;0.10;;;13.30;99.90;;;;;;4997063;28;20191;-70
2023/06/17 00:58:54;;;;;;;0.65;0.38;;;13.30;99.90;;;;;;5012420;28;20037;-71
2023/06/17 01:01:20;;;;;;;0.17;0.17;;;13.30;99.90;;;;;;5014757;28;20049;-70
2023/06/17 01:03:46;;;;;;;0.30;0.20;;;13.30;99.90;;;;;;5009782;28;20382;-70
2023/06/17 01:06:24;;;;;;;0.10;0.10;;;13.20;99.90;;;;;;5012737;28;20049;-70
2023/06/17 01:09:01;;;;;;;0.45;0.10;;;13.20;99.90;;;;;;5010934;28;20378;-70
2023/06/17 01:11:29;;;;;;;0.10;0.10;;;13.20;99.90;;;;;;5011677;28;20063;-70
2023/06/17 01:13:56;;;;;;;0.55;0.20;;;13.20;99.90;;;;;;5012578;28;20033;-70
2023/06/17 01:16:25;;;;;;;0.25;0.20;;;13.20;99.90;;;;;;4996405;28;20081;-70
2023/06/17 01:18:52;;;;;;;0.20;0.10;;;13.30;99.90;;;;;;5009730;28;20037;-70
2023/06/17 01:21:20;;;;;;;0.00;0.00;;;13.30;99.90;;;;;;5013596;28;20037;-70
2023/06/17 01:23:49;;;;;;;0.00;0.00;;;13.30;99.90;;;;;;5029776;28;20045;-70
2023/06/17 01:26:16;;;;;;;0.63;0.45;;;13.40;99.90;;;;;;5013359;28;20048;-70
2023/06/17 01:28:44;;;;;;;2.83;0.95;;;13.40;99.90;;;;;;5012497;28;20042;-70
2023/06/17 01:31:12;;;;;;;0.43;0.28;;;13.40;99.90;;;;;;5013548;28;20045;-70
2023/06/17 01:33:41;;;;;;;0.10;0.10;;;13.50;99.90;;;;;;5011495;28;20131;-70
2023/06/17 01:36:14;;;;;;;0.25;0.25;;;13.50;99.90;;;;;;4997759;28;20084;-71
2023/06/17 01:38:48;;;;;;;0.45;0.30;;;13.50;99.90;;;;;;5013588;28;20040;-70
2023/06/17 01:41:23;;;;;;;0.20;0.20;;;13.60;99.90;;;;;;5012868;28;20037;-70
2023/06/17 01:43:51;;;;;;;0.63;0.30;;;13.60;99.90;;;;;;5011964;28;20044;-70
2023/06/17 01:46:17;;;;;;;0.00;0.00;;;13.70;99.90;;;;;;5010079;28;20557;-70
2023/06/17 01:48:44;;;;;;;0.05;0.05;;;13.80;99.90;;;;;;5001290;28;20038;-70
2023/06/17 01:51:10;;;;;;;0.43;0.13;;;13.80;99.90;;;;;;5014373;28;20496;-70
2023/06/17 01:53:36;;;;;;;0.47;0.20;;;13.90;99.90;;;;;;5011111;28;20044;-70
2023/06/17 01:56:02;;;;;;;0.00;0.00;;;13.90;99.90;;;;;;5009495;28;20448;-70
2023/06/17 01:58:27;;;;;;;0.68;0.10;;;14.00;99.90;;;;;;5028677;28;20052;-70
2023/06/17 02:00:53;;;;;;;0.10;0.10;;;14.00;99.90;;;;;;5012762;28;20569;-70
2023/06/17 02:03:20;;;;;;;0.00;0.00;;;14.10;99.90;;;;;;5010594;28;20091;-70
2023/06/17 02:05:46;;;;;;;0.15;0.15;;;14.10;99.90;;;;;;4997579;28;20485;-70
2023/06/17 02:08:14;;;;;;;0.28;0.28;;;14.10;99.90;;;;;;5009599;28;20416;-70
2023/06/17 02:10:39;;;;;;;0.10;0.08;;;14.10;99.90;;;;;;5012787;28;20044;-70
2023/06/17 02:13:07;;;;;;;0.25;0.20;;;14.10;99.90;;;;;;5012912;28;20041;-70
2023/06/17 02:15:33;;;;;;;0.08;0.08;;;14.20;99.90;;;;;;5011326;28;20394;-70
2023/06/17 02:18:00;;;;;;;0.38;0.20;;;14.20;99.90;;;;;;5010008;28;20099;-71
2023/06/17 02:20:26;;;;;;;0.30;0.20;;;14.30;99.90;;;;;;5009798;28;20042;-70
2023/06/17 02:22:52;;;;;;;0.20;0.17;;;14.30;99.90;;;;;;5012322;28;20044;-70
2023/06/17 02:25:18;;;;;;;0.38;0.25;;;14.30;99.90;;;;;;4993801;28;20474;-70
2023/06/17 02:27:43;;;;;;;0.20;0.10;;;14.30;99.90;;;;;;5010740;28;20041;-70
2023/06/17 02:30:10;;;;;;;0.43;0.35;;;14.30;99.90;;;;;;5009884;28;20096;-71
2023/06/17 02:32:36;;;;;;;0.10;0.05;;;14.30;99.90;;;;;;5011751;28;20521;-71
2023/06/17 02:35:02;;;;;;;0.77;0.57;;;14.30;99.90;;;;;;5012022;28;20125;-71
2023/06/17 02:37:28;;;;;;;0.75;0.57;;;14.40;99.90;;;;;;5014048;28;20926;-71
2023/06/17 02:39:54;;;;;;;0.20;0.20;;;14.40;99.90;;;;;;5011692;28;20084;-71
2023/06/17 02:42:20;;;;;;;0.52;0.35;;;14.40;99.90;;;;;;4996538;28;20037;-71
2023/06/17 02:44:46;;;;;;;0.73;0.68;;;14.40;99.90;;;;;;4992208;28;20049;-71
2023/06/17 02:47:12;;;;;;;0.82;0.70;;;14.40;99.90;;;;;;5008140;28;20387;-71
2023/06/17 02:49:38;;;;;;;1.27;1.05;;;14.40;99.90;;;;;;5012068;28;20041;-71
2023/06/17 02:52:04;;;;;;;1.20;0.90;;;14.40;99.90;;;;;;5010250;28;20117;-72
2023/06/17 02:54:30;;;;;;;0.30;0.30;;;14.30;99.90;;;;;;5011197;28;20041;-71
2023/06/17 02:56:56;;;;;;;0.35;0.30;;;14.30;99.90;;;;;;5011750;28;20421;-71
2023/06/17 02:59:22;;;;;;;1.27;1.00;;;14.30;99.90;;;;;;5011744;28;20401;-71
2023/06/17 03:01:48;;;;;;;1.02;0.57;;;14.40;99.90;;;;;;5008702;28;20409;-71
2023/06/17 03:04:14;;;;;;;0.45;0.40;;;14.40;99.90;;;;;;5008885;28;20045;-71
2023/06/17 03:06:44;;;;;;;1.40;0.85;;;14.30;99.90;;;;;;5010758;28;20055;-72
2023/06/17 03:09:11;;;;;;;3.45;0.75;;;14.40;99.90;;;;;;5007994;28;20044;-72
2023/06/17 03:11:36;;;;;;;0.73;0.60;;;14.40;99.90;;;;;;5010469;28;20590;-70
2023/06/17 03:14:03;;;;;;;0.68;0.57;;;14.40;99.90;;;;;;5007942;28;20133;-70
2023/06/17 03:16:31;;;;;;;2.28;0.70;;;14.40;99.90;;;;;;5008288;28;20038;-70
2023/06/17 03:18:58;;;;;;;0.30;0.22;;;14.40;99.90;;;;;;5006698;28;20045;-70
2023/06/17 03:21:25;;;;;;;2.55;0.55;;;14.40;99.90;;;;;;5010677;28;20041;-69
2023/06/17 03:23:51;;;;;;;0.40;0.32;;;14.40;99.90;;;;;;5028655;28;20398;-71
2023/06/17 03:26:17;;;;;;;0.00;0.00;;;14.40;99.90;;;;;;5009232;28;20049;-70
2023/06/17 03:28:43;;;;;;;0.30;0.28;;;14.50;99.90;;;;;;5010929;28;20567;-71
2023/06/17 03:31:10;;;;;;;0.40;0.40;;;14.50;99.90;;;;;;4995701;28;20041;-70
2023/06/17 03:33:36;;;;;;;0.22;0.22;;;14.50;99.90;;;;;;5010873;28;20045;-71
2023/06/17 03:36:02;;;;;;;0.73;0.68;;;14.40;99.90;;;;;;4995579;28;20095;-70
2023/06/17 03:38:28;;;;;;;5.60;1.02;;;14.40;99.90;;;;;;4995895;28;20029;-70
2023/06/17 03:40:53;;;;;;;0.30;0.30;;;14.40;99.90;;;;;;4995709;28;20116;-70
2023/06/17 03:43:19;;;;;;;0.32;0.30;;;14.40;99.90;;;;;;5008806;28;20049;-71
2023/06/17 03:45:45;;;;;;;0.45;0.40;;;14.50;99.90;;;;;;4994805;28;20056;-71
2023/06/17 03:48:11;;;;;;;0.10;0.10;;;14.40;99.90;;;;;;4994990;28;20045;-71
2023/06/17 03:50:36;;;;;;;1.05;0.47;;;14.40;99.90;;;;;;5012538;28;20041;-71
2023/06/17 03:53:02;;;;;;;0.10;0.10;;;14.50;99.90;;;;;;5009209;28;20124;-71
2023/06/17 03:55:29;;;;;;;0.80;0.77;;;14.50;99.90;;;;;;5011285;28;20050;-71
2023/06/17 03:57:54;;;;;;;0.65;0.65;;;14.50;99.90;;;;;;5011420;28;20041;-71
2023/06/17 04:00:20;;;;;;;0.63;0.63;;;14.40;99.90;;;;;;5026105;28;20107;-71
2023/06/17 04:02:47;;;;;;;0.45;0.45;;;14.30;99.90;;;;;;5013138;28;20505;-71
2023/06/17 04:05:13;;;;;;;0.30;0.20;;;14.30;99.90;;;;;;5010857;28;20044;-71
2023/06/17 04:07:39;;;;;;;0.40;0.32;;;14.30;99.90;;;;;;5006639;28;20103;-70
2023/06/17 04:10:09;;;;;;;0.45;0.40;;;14.30;99.90;;;;;;5012169;28;20382;-71
2023/06/17 04:12:41;;;;;;;1.92;1.00;;;14.30;99.90;;;;;;5008450;28;20034;-71
2023/06/17 04:15:07;;;;;;;0.17;0.17;;;14.20;99.90;;;;;;5011325;28;20038;-71
2023/06/17 04:17:36;;;;;;;1.17;0.40;;;14.20;99.90;;;;;;5024619;28;20056;-71
2023/06/17 04:20:10;;;;;;;1.30;1.02;;;14.20;99.90;;;;;;5013562;28;20049;-71
2023/06/17 04:22:38;;;;;;;0.80;0.80;;;14.20;99.90;;;;;;5011753;28;20041;-70
2023/06/17 04:25:05;;;;;;;0.77;0.70;;;14.20;99.90;;;;;;5016100;28;20045;-71
2023/06/17 04:27:31;;;;;;;0.65;0.43;;;14.20;99.90;;;;;;5014350;28;20409;-71
2023/06/17 04:29:57;;;;;;;1.80;0.98;;;14.20;99.90;;;;;;5013314;28;20045;-70
2023/06/17 04:32:26;;;;;;;2.55;1.65;;;14.20;99.90;;;;;;5011083;28;20046;-71
2023/06/17 04:34:53;;;;;;;0.38;0.30;;;14.20;99.90;;;;;;5012509;28;20053;-71
2023/06/17 04:37:20;;;;;;;2.08;0.65;;;14.20;99.90;;;;;;5014125;28;20037;-71
2023/06/17 04:39:45;;;;;;;0.52;0.52;;;14.20;99.90;;;;;;5012838;28;20213;-71
2023/06/17 04:42:16;;;;;;;0.43;0.43;;;14.30;99.90;;;;;;5030202;28;20413;-71
2023/06/17 04:44:42;;;;;;;0.57;0.47;;;14.30;99.90;;;;;;5012834;28;20250;-71
2023/06/17 04:47:10;;;;;;;0.63;0.63;;;14.30;99.90;;;;;;5014268;28;20038;-71
2023/06/17 04:49:41;;;;;;;1.05;0.57;;;14.30;99.90;;;;;;5011530;28;20056;-70
2023/06/17 04:52:08;;;;;;;0.47;0.47;;;14.20;99.90;;;;;;5013473;28;20049;-71
2023/06/17 04:54:34;;;;;;;0.30;0.20;;;14.30;99.90;;;;;;5010178;28;20049;-71
2023/06/17 04:57:01;;;;;;;0.68;0.60;;;14.30;99.90;;;;;;5030132;28;20431;-71
2023/06/17 04:59:27;;;;;;;0.68;0.50;;;14.30;99.90;;;;;;4993858;28;20179;-71
2023/06/17 05:01:52;;;;;;;0.70;0.30;;;14.30;99.90;;;;;;5008695;28;20156;-71
2023/06/17 05:04:18;;;;;;;0.40;0.40;;;14.30;99.90;;;;;;5028702;28;20044;-71
2023/06/17 05:06:45;;;;;;;0.63;0.63;;;14.40;99.90;;;;;;5010566;28;20042;-71
2023/06/17 05:09:10;;;;;;;0.82;0.38;;;14.40;99.90;;;;;;5012430;28;20163;-71
2023/06/17 05:11:38;;;;;;;1.95;1.23;;;14.40;99.90;;;;;;5011094;28;20120;-71
2023/06/17 05:14:07;;;;;;;0.47;0.45;;;14.50;99.90;;;;;;5009680;28;20116;-71
2023/06/17 05:16:33;;;;;;;5.72;0.50;;;14.40;99.90;;;;;;5012818;28;20068;-71
2023/06/17 05:18:59;;;;;;;0.98;0.65;;;14.60;99.90;;;;;;5027787;28;20030;-70
2023/06/17 05:21:25;;;;;;;0.43;0.43;;;14.60;99.90;;;;;;5012784;28;20457;-70
2023/06/17 05:23:50;;;;;;;0.25;0.25;;;14.70;99.90;;;;;;5029405;28;20419;-71
2023/06/17 05:26:17;;;;;;;1.25;0.98;;;14.70;99.90;;;;;;5012771;28;20132;-70
2023/06/17 05:28:43;;;;;;;0.43;0.32;;;14.70;99.90;;;;;;5012555;28;20044;-70
2023/06/17 05:31:09;;;;;;;0.55;0.45;;;14.70;99.90;;;;;;5011154;28;20051;-71
2023/06/17 05:33:36;;;;;;;0.40;0.30;;;14.70;99.90;;;;;;5009799;28;20045;-71
2023/06/17 05:36:02;;;;;;;0.60;0.43;;;14.70;99.90;;;;;;5012496;28;20537;-71
2023/06/17 05:38:28;;;;;;;1.08;0.45;;;14.70;99.90;;;;;;5009130;28;20054;-71
2023/06/17 05:40:53;;;;;;;1.33;0.52;;;14.80;99.90;;;;;;5012651;28;20053;-71
2023/06/17 05:43:19;;;;;;;0.20;0.20;;;14.80;99.90;;;;;;4995104;28;20040;-70
2023/06/17 05:45:45;;;;;;;0.52;0.32;;;14.80;99.90;;;;;;5012653;28;20497;-70
2023/06/17 05:48:12;;;;;;;0.20;0.20;;;14.80;99.90;;;;;;5011622;28;20072;-71
2023/06/17 05:50:38;;;;;;;1.25;0.70;;;14.90;99.90;;;;;;5012125;28;20049;-71
2023/06/17 05:53:04;;;;;;;0.43;0.40;;;14.90;99.90;;;;;;5011123;28;20048;-71
2023/06/17 05:55:29;;;;;;;0.38;0.32;;;14.90;99.90;;;;;;5012437;28;20042;-71
2023/06/17 05:57:55;;;;;;;0.63;0.50;;;15.00;99.90;;;;;;5012116;28;20053;-70
2023/06/17 06:00:22;;;;;;;1.27;1.08;;;15.00;99.90;;;;;;5011784;28;20394;-71
2023/06/17 06:02:48;;;;;;;1.10;1.00;;;15.00;99.90;;;;;;5006514;28;20053;-71
2023/06/17 06:05:14;;;;;;;0.90;0.68;;;14.90;99.90;;;;;;5009036;28;20117;-70
2023/06/17 06:07:41;;;;;;;0.45;0.40;;;14.80;99.90;;;;;;5007726;28;20085;-71
2023/06/17 06:10:07;;;;;;;0.80;0.65;;;14.90;99.90;;;;;;5023060;28;20129;-71
2023/06/17 06:12:33;;;;;;;0.28;0.20;;;14.90;99.90;;;;;;5010543;28;20060;-70
2023/06/17 06:14:59;;;;;;;0.40;0.38;;;15.00;99.90;;;;;;5012404;28;20041;-71
2023/06/17 06:17:25;;;;;;;1.15;0.82;;;15.10;99.90;;;;;;5011261;28;20041;-70
2023/06/17 06:19:51;;;;;;;0.70;0.68;;;15.10;99.90;;;;;;5010655;28;20124;-71
2023/06/17 06:22:18;;;;;;;1.00;0.65;;;15.10;99.90;;;;;;5011377;28;20219;-71
2023/06/17 06:24:43;;;;;;;0.15;0.15;;;15.10;99.90;;;;;;5010486;28;20516;-70
2023/06/17 06:27:09;;;;;;;2.15;0.95;;;15.10;99.90;;;;;;5011330;28;20072;-71
2023/06/17 06:29:35;;;;;;;0.80;0.70;;;15.10;99.90;;;;;;5011024;28;20088;-71
2023/06/17 06:32:02;;;;;;;0.52;0.40;;;15.10;99.90;;;;;;5012367;28;20041;-71
2023/06/17 06:34:28;;;;;;;0.50;0.45;;;15.10;99.90;;;;;;5007657;28;20041;-71
2023/06/17 06:36:58;;;;;;;0.93;0.57;;;15.20;99.90;;;;;;5010571;28;20045;-71
2023/06/17 06:39:25;;;;;;;0.68;0.60;;;15.20;99.90;;;;;;5009163;28;20042;-70
2023/06/17 06:41:51;;;;;;;1.15;0.85;;;15.20;99.90;;;;;;5004723;28;20413;-71
2023/06/17 06:44:17;;;;;;;0.47;0.20;;;15.20;99.90;;;;;;4992795;28;20128;-71
2023/06/17 06:46:43;;;;;;;0.25;0.20;;;15.30;99.90;;;;;;5012047;28;20046;-71
2023/06/17 06:49:09;;;;;;;0.30;0.30;;;15.50;99.90;;;;;;5010092;28;20041;-71
2023/06/17 06:51:36;;;;;;;1.25;0.70;;;15.50;99.90;;;;;;5009487;28;20057;-71
2023/06/17 06:54:02;;;;;;;0.50;0.38;;;15.50;99.90;;;;;;5009779;28;20041;-71
2023/06/17 06:56:28;;;;;;;1.27;0.50;;;15.50;99.90;;;;;;5007083;28;20041;-71
2023/06/17 06:58:56;;;;;;;0.35;0.35;;;15.60;99.90;;;;;;5007627;28;20044;-70
2023/06/17 07:01:23;;;;;;;1.30;0.85;;;15.70;99.90;;;;;;5007899;28;20114;-71
2023/06/17 07:03:51;;;;;;;1.48;0.68;;;15.80;99.90;;;;;;5008558;28;20054;-71
2023/06/17 07:06:17;;;;;;;1.05;0.75;;;15.90;99.90;;;;;;5009411;28;20045;-69
2023/06/17 07:08:43;;;;;;;12.73;4.15;;;15.90;99.90;;;;;;4993793;28;20056;-72
2023/06/17 07:11:08;;;;;;;2.70;2.50;;;16.00;99.90;;;;;;5008662;28;20041;-69
2023/06/17 07:13:34;;;;;;;2.63;1.65;;;16.00;99.90;;;;;;5007562;28;20041;-72
2023/06/17 07:16:00;;;;;;;0.28;0.28;;;16.10;99.90;;;;;;5008005;28;20037;-69
2023/06/17 07:18:26;;;;;;;0.77;0.68;;;16.10;99.90;;;;;;5005367;28;20033;-69
2023/06/17 07:20:52;;;;;;;1.65;0.65;;;16.30;99.90;;;;;;4994906;28;20128;-70
2023/06/17 07:23:17;;;;;;;0.88;0.57;;;16.30;99.90;;;;;;5027577;28;20093;-70
2023/06/17 07:25:43;;;;;;;0.75;0.60;;;16.40;99.90;;;;;;5006169;28;20417;-70
2023/06/17 07:28:09;;;;;;;0.85;0.57;;;16.40;99.90;;;;;;5009122;28;20056;-70
2023/06/17 07:30:35;;;;;;;0.25;0.22;;;16.50;99.90;;;;;;4995925;28;20060;-70
2023/06/17 07:33:00;;;;;;;0.35;0.22;;;16.60;99.90;;;;;;5009993;28;20046;-70
2023/06/17 07:35:26;;;;;;;0.30;0.28;;;16.80;99.90;;;;;;5009648;28;20048;-70
2023/06/17 07:37:52;;;;;;;1.45;1.30;;;17.00;99.90;;;;;;5012525;28;20397;-70
2023/06/17 07:40:18;;;;;;;2.72;1.50;;;17.00;99.90;;;;;;5008767;28;20132;-70
2023/06/17 07:42:44;;;;;;;1.17;1.00;;;17.10;99.90;;;;;;5029788;28;20073;-70
2023/06/17 07:45:10;;;;;;;0.43;0.43;;;17.20;99.90;;;;;;5011799;28;20068;-70
2023/06/17 07:47:37;;;;;;;0.68;0.57;;;17.30;99.90;;;;;;4995793;28;20055;-70
2023/06/17 07:50:08;;;;;;;0.50;0.40;;;17.30;99.90;;;;;;5008793;28;20033;-70
2023/06/17 07:52:35;;;;;;;0.15;0.10;;;17.30;99.90;;;;;;5012026;28;20051;-71
2023/06/17 07:55:04;;;;;;;0.47;0.47;;;17.50;99.90;;;;;;5010873;28;20053;-70
2023/06/17 07:57:30;;;;;;;1.00;0.75;;;17.60;99.90;;;;;;5011070;28;20167;-70
2023/06/17 07:59:56;;;;;;;0.40;0.40;;;17.60;99.90;;;;;;5009753;28;20484;-70
2023/06/17 08:02:22;;;;;;;0.77;0.63;;;17.70;99.90;;;;;;4994723;28;20061;-71
2023/06/17 08:04:48;;;;;;;0.47;0.45;;;17.70;99.90;;;;;;5022481;28;20071;-71
2023/06/17 08:07:14;;;;;;;0.63;0.50;;;17.80;99.90;;;;;;5005892;28;20569;-71
2023/06/17 08:09:40;;;;;;;0.57;0.47;;;17.90;99.90;;;;;;5005254;28;20116;-70
2023/06/17 08:12:06;;;;;;;0.43;0.40;;;18.00;99.90;;;;;;5028064;28;20041;-71
2023/06/17 08:14:32;;;;;;;0.57;0.55;;;18.10;99.90;;;;;;5004369;28;20052;-71
2023/06/17 08:16:57;;;;;;;0.35;0.22;;;18.20;99.90;;;;;;5011582;28;20041;-70
2023/06/17 08:19:23;;;;;;;1.60;0.30;;;18.40;99.90;;;;;;5006396;28;20049;-71
2023/06/17 08:21:49;;;;;;;0.65;0.28;;;18.50;99.90;;;;;;5010032;28;20038;-71
2023/06/17 08:24:33;;;;;;;6.18;0.40;;;18.60;99.90;;;;;;5010860;28;20045;-71
2023/06/17 08:26:59;;;;;;;0.20;0.10;;;18.70;99.90;;;;;;5011552;28;20052;-70
2023/06/17 08:29:25;;;;;;;0.55;0.40;;;18.80;99.90;;;;;;5011780;28;20041;-71
2023/06/17 08:31:52;;;;;;;0.98;0.68;;;19.10;99.90;;;;;;5009634;28;20121;-71
2023/06/17 08:34:19;;;;;;;1.55;0.52;;;19.30;99.90;;;;;;5008088;28;20073;-71
2023/06/17 08:36:49;;;;;;;1.48;0.82;;;19.50;99.90;;;;;;5006825;28;20104;-71
2023/06/17 08:39:15;;;;;;;0.52;0.52;;;19.60;99.90;;;;;;5011362;28;20034;-71
2023/06/17 08:41:42;;;;;;;1.23;0.65;;;19.80;99.90;;;;;;5009684;28;20555;-71
2023/06/17 08:44:13;;;;;;;0.73;0.52;;;19.90;99.90;;;;;;4995373;28;20045;-71
2023/06/17 08:46:40;;;;;;;1.83;0.60;;;20.10;99.90;;;;;;5006121;28;20113;-70
2023/06/17 08:49:10;;;;;;;2.10;0.43;;;20.30;99.90;;;;;;4994793;28;20077;-70
2023/06/17 08:51:36;;;;;;;0.20;0.20;;;20.50;99.90;;;;;;4989820;28;20041;-71
2023/06/17 08:54:02;;;;;;;0.50;0.35;;;20.70;99.90;;;;;;4989519;28;20098;-71
2023/06/17 08:56:28;;;;;;;0.45;0.45;;;20.90;99.90;;;;;;4992150;28;20073;-71
2023/06/17 08:58:55;;;;;;;0.40;0.40;;;21.10;99.90;;;;;;5009965;28;20049;-71
2023/06/17 09:01:25;;;;;;;0.75;0.47;;;21.00;99.90;;;;;;5006302;28;20041;-71
2023/06/17 09:03:52;;;;;;;0.73;0.55;;;21.00;99.90;;;;;;5011109;28;20549;-71
2023/06/17 09:06:27;;;;;;;0.65;0.38;;;20.90;99.90;;;;;;5012356;28;20049;-73
2023/06/17 09:08:55;;;;;;;0.40;0.40;;;20.90;99.90;;;;;;4996459;28;20050;-73
2023/06/17 09:11:23;;;;;;;3.70;0.98;;;21.00;99.90;;;;;;5011933;28;20401;-72
2023/06/17 09:13:57;;;;;;;0.40;0.20;;;21.10;99.90;;;;;;5009720;28;20397;-72
2023/06/17 09:16:26;;;;;;;0.20;0.20;;;21.40;99.90;;;;;;4995101;28;20049;-72
2023/06/17 09:19:02;;;;;;;1.70;0.47;;;21.70;99.90;;;;;;5009706;28;20091;-73
2023/06/17 09:21:28;;;;;;;0.52;0.30;;;22.00;99.90;;;;;;5025134;28;20048;-72
2023/06/17 09:23:56;;;;;;;4.32;0.80;;;22.20;99.90;;;;;;5008600;28;20075;-73
2023/06/17 09:26:29;;;;;;;0.28;0.20;;;22.30;99.90;;;;;;5010179;28;20102;-72
2023/06/17 09:29:02;;;;;;;0.10;0.10;;;22.50;99.90;;;;;;4997236;28;20477;-73
2023/06/17 09:31:29;;;;;;;0.30;0.20;;;22.60;99.90;;;;;;5011868;28;20048;-72
2023/06/17 09:33:56;;;;;;;0.30;0.30;;;22.80;99.90;;;;;;5012097;28;20469;-73
2023/06/17 09:36:23;;;;;;;0.40;0.28;;;22.70;99.90;;;;;;5014276;28;20449;-72
2023/06/17 09:38:51;;;;;;;0.55;0.50;;;22.90;99.90;;;;;;5014275;28;20099;-73
2023/06/17 09:41:18;;;;;;;0.25;0.20;;;23.00;99.90;;;;;;5027275;28;20541;-73
2023/06/17 09:43:54;;;;;;;0.93;0.45;;;23.10;99.90;;;;;;4996196;28;20037;-73
2023/06/17 09:46:29;;;;;;;0.73;0.43;;;23.30;99.90;;;;;;5013026;28;20037;-73
2023/06/17 09:48:59;;;;;;;0.43;0.20;;;23.40;99.90;;;;;;4994216;28;20505;-73
2023/06/17 09:51:25;;;;;;;0.75;0.40;;;23.50;99.90;;;;;;5010988;28;20333;-73
2023/06/17 09:53:52;;;;;;;0.30;0.30;;;23.70;99.90;;;;;;5009099;28;20049;-73
2023/06/17 09:56:19;;;;;;;0.80;0.52;;;23.50;99.90;;;;;;4996013;28;20160;-73
2023/06/17 09:58:45;;;;;;;0.57;0.30;;;23.30;99.90;;;;;;5008894;28;20063;-73
2023/06/17 10:01:12;;;;;;;1.02;0.28;;;23.30;99.90;;;;;;5008110;28;20370;-73
2023/06/17 10:03:39;;;;;;;0.70;0.28;;;23.50;99.90;;;;;;4994562;28;20108;-73
2023/06/17 10:06:10;;;;;;;1.23;0.40;;;23.80;99.90;;;;;;5010875;28;20049;-73
2023/06/17 10:08:39;;;;;;;0.08;0.00;;;24.20;99.90;;;;;;5011730;28;20038;-73
2023/06/17 10:11:04;;;;;;;1.67;0.57;;;24.50;99.90;;;;;;5012789;28;20108;-73
2023/06/17 10:13:36;;;;;;;0.38;0.22;;;24.60;99.90;;;;;;5012562;28;20426;-73
2023/06/17 10:16:04;;;;;;;0.47;0.38;;;24.90;99.90;;;;;;5030042;28;20041;-73
2023/06/17 10:18:33;;;;;;;0.10;0.10;;;25.10;99.90;;;;;;5006941;28;20095;-74
2023/06/17 10:21:01;;;;;;;1.58;0.68;;;25.20;99.90;;;;;;5013991;28;20465;-73
2023/06/17 10:23:28;;;;;;;0.13;0.10;;;24.90;99.90;;;;;;5011994;28;20485;-73
2023/06/17 10:25:54;;;;;;;0.55;0.52;;;25.00;99.90;;;;;;5011856;28;20123;-74
2023/06/17 10:28:20;;;;;;;0.50;0.30;;;25.20;99.90;;;;;;5008733;28;20497;-74
2023/06/17 10:30:46;;;;;;;0.10;0.10;;;25.30;99.90;;;;;;5011338;28;20124;-74
2023/06/17 10:33:12;;;;;;;0.25;0.17;;;25.60;99.90;;;;;;5008731;28;20038;-74
2023/06/17 10:35:44;;;;;;;0.60;0.25;;;26.00;99.90;;;;;;4994546;28;20371;-74
2023/06/17 10:38:29;;;;;;;1.38;0.52;;;26.30;99.90;;;;;;5009363;28;20088;-74
2023/06/17 10:40:56;;;;;;;0.40;0.40;;;26.40;97.90;;;;;;5007088;28;20041;-73
2023/06/17 10:43:23;;;;;;;0.65;0.30;;;26.20;99.90;;;;;;5011036;28;20034;-74
2023/06/17 10:45:54;;;;;;;0.40;0.32;;;26.10;98.30;;;;;;5011349;28;20045;-74
2023/06/17 10:48:20;;;;;;;0.43;0.22;;;26.30;99.70;;;;;;5009566;28;20090;-75
2023/06/17 10:50:52;;;;;;;0.28;0.28;;;26.60;99.60;;;;;;5010130;28;20068;-74
2023/06/17 10:53:25;;;;;;;0.28;0.20;;;26.80;99.90;;;;;;5007050;28;20146;-74
2023/06/17 10:55:51;;;;;;;0.45;0.30;;;26.90;96.60;;;;;;5008242;28;20041;-74
2023/06/17 10:58:17;;;;;;;0.30;0.20;;;27.00;99.90;;;;;;5010323;28;20367;-74
2023/06/17 11:00:42;;;;;;;2.85;0.88;;;27.10;98.60;;;;;;5027579;28;20045;-74
2023/06/17 11:03:09;;;;;;;0.65;0.28;;;27.20;96.50;;;;;;5006333;28;20401;-75
2023/06/17 11:05:37;;;;;;;0.20;0.15;;;27.40;96.80;;;;;;4993844;28;20042;-74
2023/06/17 11:08:04;;;;;;;0.10;0.10;;;27.60;96.60;;;;;;5009982;28;20042;-75
2023/06/17 11:10:30;;;;;;;0.20;0.10;;;27.60;93.50;;;;;;5009516;28;20038;-75
2023/06/17 11:12:55;;;;;;;4.50;1.05;;;27.90;95.80;;;;;;5011583;28;20045;-75
2023/06/17 11:15:22;;;;;;;2.55;1.00;;;28.10;94.10;;;;;;5009836;28;20041;-75
2023/06/17 11:18:03;;;;;;;0.32;0.10;;;28.10;90.60;;;;;;5027739;28;20041;-75
2023/06/17 11:20:33;;;;;;;0.43;0.32;;;28.20;93.60;;;;;;5009380;28;20072;-75
2023/06/17 11:22:58;;;;;;;0.52;0.40;;;28.20;85.30;;;;;;5010004;28;20036;-75
2023/06/17 11:25:24;;;;;;;0.10;0.10;;;28.00;89.50;;;;;;5008000;28;20033;-75
2023/06/17 11:27:50;;;;;;;0.22;0.10;;;28.30;91.60;;;;;;5008166;28;20045;-75
2023/06/17 11:30:16;;;;;;;0.10;0.00;;;28.50;80.90;;;;;;4994839;28;20405;-76
2023/06/17 11:32:44;;;;;;;0.22;0.22;;;28.40;82.30;;;;;;4994702;28;20041;-75
2023/06/17 11:35:10;;;;;;;0.20;0.10;;;28.50;84.50;;;;;;4991991;28;20046;-77
2023/06/17 11:37:37;;;;;;;0.20;0.20;;;28.50;78.50;;;;;;5006877;28;20054;-76
2023/06/17 11:40:04;;;;;;;0.10;0.10;;;28.70;80.40;;;;;;4994420;28;20053;-76
2023/06/17 11:42:30;;;;;;;0.20;0.00;;;28.80;80.30;;;;;;5008190;28;20049;-76
2023/06/17 11:44:56;;;;;;;0.17;0.17;;;28.90;77.70;;;;;;5007633;28;20049;-75
2023/06/17 11:47:35;;;;;;;0.47;0.25;;;29.10;79.80;;;;;;4994661;28;20394;-75
2023/06/17 11:50:03;;;;;;;0.60;0.15;;;29.30;77.10;;;;;;5010222;28;20045;-75
2023/06/17 11:52:29;;;;;;;0.10;0.10;;;29.60;72.70;;;;;;5010978;28;20061;-74
2023/06/17 11:54:55;;;;;;;1.63;0.20;;;29.80;72.50;;;;;;5009572;28;20056;-75
2023/06/17 11:57:23;;;;;;;0.20;0.10;;;29.90;66.70;;;;;;5011184;28;20084;-75
2023/06/17 11:59:52;;;;;;;0.10;0.10;;;29.90;70.50;;;;;;5010890;28;20037;-76
2023/06/17 12:02:19;;;;;;;0.10;0.10;;;29.70;66.40;;;;;;5010662;28;20107;-75
2023/06/17 12:04:46;;;;;;;0.15;0.15;;;29.80;68.80;;;;;;5007779;28;20033;-75
2023/06/17 12:07:12;;;;;;;0.20;0.10;;;30.10;68.60;;;;;;5010745;28;20107;-75
2023/06/17 12:09:48;;;;;;;0.15;0.10;;;30.40;67.20;;;;;;5011183;28;20044;-75
2023/06/17 12:12:34;;;;;;;0.43;0.15;;;30.40;59.20;;;;;;5010723;28;20041;-75
2023/06/17 12:15:09;;;;;;;0.10;0.10;;;30.30;63.40;;;;;;5004458;28;20085;-75
2023/06/17 12:17:43;;;;;;;0.10;0.03;;;30.10;61.00;;;;;;5009208;28;20072;-75
2023/06/17 12:20:17;;;;;;;0.05;0.05;;;30.10;67.70;;;;;;4990908;28;20034;-75
2023/06/17 12:22:44;;;;;;;0.10;0.10;;;30.40;66.50;;;;;;5008403;28;20042;-75
2023/06/17 12:25:13;;;;;;;0.85;0.28;;;30.60;65.00;;;;;;5009147;28;20041;-75
2023/06/17 12:27:40;;;;;;;0.38;0.20;;;30.40;58.40;;;;;;4981612;28;20037;-75
2023/06/17 12:30:08;;;;;;;0.20;0.20;;;30.30;60.20;;;;;;5026014;28;20069;-75
2023/06/17 12:32:36;;;;;;;0.10;0.10;;;30.30;57.70;;;;;;5005986;28;20104;-75
2023/06/17 12:35:02;;;;;;;0.32;0.30;;;30.10;55.90;;;;;;5006184;28;20103;-75
2023/06/17 12:37:29;;;;;;;0.35;0.25;;;29.60;56.50;;;;;;5010190;28;20037;-75
2023/06/17 12:40:06;;;;;;;0.20;0.10;;;29.40;55.80;;;;;;5008166;28;20038;-75
2023/06/17 12:42:32;;;;;;;0.20;0.10;;;29.30;57.90;;;;;;5013695;28;20038;-75
2023/06/17 12:44:58;;;;;;;0.73;0.40;;;29.30;57.30;;;;;;5012143;28;20069;-75
2023/06/17 12:47:25;;;;;;;0.03;0.00;;;29.10;56.40;;;;;;5010911;28;20034;-75
2023/06/17 12:49:51;;;;;;;0.20;0.10;;;29.10;60.20;;;;;;4997944;28;20045;-75